Time;durP1;ratioP1;P1;durP2;ratioP2;P2;SDS_P1;SDS_P2;PMS_P1;PMS_P2;Temp;Humidity;BMP_temperature;BMP_pressure;BME280_temperature;BME280_humidity;BME280_pressure;Samples;Min_cycle;Max_cycle;Signal;HPM_P1;HPM_P2
2023/01/11 00:01:34;;;;;;;6.40;2.78;;;;;;;;;;5048308;28;20052;-73
2023/01/11 00:04:05;;;;;;;8.90;2.58;;;;;;;;;;5066452;28;20051;-75
2023/01/11 00:06:35;;;;;;;5.05;3.00;;;;;;;;;;5065956;28;20056;-75
2023/01/11 00:09:06;;;;;;;8.23;2.67;;;;;;;;;;5066466;28;20052;-74
2023/01/11 00:11:36;;;;;;;11.40;3.10;;;;;;;;;;5065520;28;20045;-73
2023/01/11 00:14:07;;;;;;;6.85;2.80;;;;;;;;;;5066059;28;20044;-75
2023/01/11 00:16:38;;;;;;;13.05;2.63;;;;;;;;;;5065304;28;20045;-75
2023/01/11 00:19:09;;;;;;;6.47;2.33;;;;;;;;;;5063287;28;20053;-75
2023/01/11 00:21:40;;;;;;;5.45;2.72;;;;;;;;;;5066030;28;20048;-74
2023/01/11 00:24:09;;;;;;;4.70;2.60;;;;;;;;;;5064099;28;20051;-75
2023/01/11 00:26:41;;;;;;;5.88;3.20;;;;;;;;;;5065526;28;20053;-74
2023/01/11 00:29:12;;;;;;;11.68;3.20;;;;;;;;;;5028770;28;20510;-75
2023/01/11 00:31:43;;;;;;;5.07;2.50;;;;;;;;;;5046366;28;20044;-74
2023/01/11 00:34:13;;;;;;;7.68;2.97;;;;;;;;;;5046324;28;20049;-75
2023/01/11 00:36:43;;;;;;;6.90;3.40;;;;;;;;;;5046446;28;20052;-75
2023/01/11 00:39:14;;;;;;;4.18;2.60;;;;;;;;;;5046468;28;20056;-74
2023/01/11 00:50:10;;;;;;;;;;;;;;;;;;5045111;28;20053;-73
2023/01/11 00:52:42;;;;;;;5.93;2.83;;;;;;;;;;5045882;28;19924;-74
2023/01/11 00:55:12;;;;;;;9.43;3.00;;;;;;;;;;5046609;28;20056;-74
2023/01/11 00:57:42;;;;;;;5.13;2.70;;;;;;;;;;5046435;28;20392;-74
2023/01/11 01:00:13;;;;;;;4.43;2.80;;;;;;;;;;5046128;28;20045;-76
2023/01/11 01:02:46;;;;;;;8.57;2.60;;;;;;;;;;5045427;28;20048;-77
2023/01/11 01:05:17;;;;;;;5.20;3.03;;;;;;;;;;5045829;28;20059;-75
2023/01/11 01:07:49;;;;;;;4.60;2.75;;;;;;;;;;5046101;28;20052;-73
2023/01/11 01:10:21;;;;;;;4.38;3.08;;;;;;;;;;5045412;28;20523;-77
2023/01/11 01:15:41;;;;;;;5.72;2.47;;;;;;;;;;5043930;28;20045;-75
2023/01/11 01:18:12;;;;;;;3.67;2.85;;;;;;;;;;5044607;28;20064;-74
2023/01/11 01:20:43;;;;;;;6.88;2.42;;;;;;;;;;5045938;28;20052;-74
2023/01/11 01:23:15;;;;;;;6.90;2.42;;;;;;;;;;5045255;28;20045;-74
2023/01/11 01:25:44;;;;;;;5.43;2.60;;;;;;;;;;5045541;28;20060;-75
2023/01/11 01:28:20;;;;;;;7.32;3.47;;;;;;;;;;5044551;28;20531;-74
2023/01/11 01:30:51;;;;;;;7.50;2.72;;;;;;;;;;5045689;28;20049;-74
2023/01/11 01:33:24;;;;;;;7.15;2.90;;;;;;;;;;5045719;28;20439;-74
2023/01/11 01:35:54;;;;;;;6.13;3.03;;;;;;;;;;5046169;28;20053;-74
2023/01/11 01:38:23;;;;;;;7.03;2.78;;;;;;;;;;5045410;28;20049;-74
2023/01/11 01:40:58;;;;;;;6.95;2.70;;;;;;;;;;5045712;28;20052;-74
2023/01/11 01:43:53;;;;;;;4.40;2.67;;;;;;;;;;5046208;28;20053;-74
2023/01/11 01:46:28;;;;;;;6.90;2.60;;;;;;;;;;5027294;28;20060;-74
2023/01/11 01:49:11;;;;;;;6.70;2.08;;;;;;;;;;5045610;28;20049;-75
2023/01/11 01:51:49;;;;;;;7.47;2.42;;;;;;;;;;5045952;28;20052;-74
2023/01/11 01:54:27;;;;;;;3.90;1.67;;;;;;;;;;5049320;28;20053;-76
2023/01/11 01:57:07;;;;;;;4.20;2.05;;;;;;;;;;5049507;28;20045;-74
2023/01/11 01:59:40;;;;;;;6.03;1.95;;;;;;;;;;5031847;28;20049;-75
2023/01/11 02:02:11;;;;;;;3.78;2.10;;;;;;;;;;5049241;28;20774;-75
2023/01/11 02:04:45;;;;;;;4.20;1.67;;;;;;;;;;5048786;28;20052;-75
2023/01/11 02:07:20;;;;;;;7.03;2.03;;;;;;;;;;5049005;28;20056;-75
2023/01/11 02:09:53;;;;;;;5.15;2.20;;;;;;;;;;5048818;28;20049;-74
2023/01/11 02:12:30;;;;;;;5.63;2.40;;;;;;;;;;5048794;28;20053;-75
2023/01/11 02:15:02;;;;;;;2.80;1.90;;;;;;;;;;5048714;28;20045;-75
2023/01/11 02:17:33;;;;;;;6.80;2.30;;;;;;;;;;5049163;28;20054;-75
2023/01/11 02:20:08;;;;;;;6.53;2.88;;;;;;;;;;5049298;28;20053;-75
2023/01/11 02:22:53;;;;;;;5.40;2.42;;;;;;;;;;5048596;28;20053;-75
2023/01/11 02:25:50;;;;;;;3.00;1.77;;;;;;;;;;5048392;28;20056;-75
2023/01/11 02:28:36;;;;;;;3.90;1.90;;;;;;;;;;5021795;28;20060;-75
2023/01/11 02:31:15;;;;;;;6.13;2.22;;;;;;;;;;5048971;28;20045;-74
2023/01/11 02:34:16;;;;;;;3.85;1.90;;;;;;;;;;5048430;28;20049;-74
2023/01/11 02:37:29;;;;;;;9.77;1.77;;;;;;;;;;5044929;28;20061;-74
2023/01/11 02:40:08;;;;;;;4.90;1.60;;;;;;;;;;4986806;28;20054;-74
2023/01/11 02:45:59;;;;;;;6.35;2.30;;;;;;;;;;5048470;28;20040;-75
2023/01/11 02:48:46;;;;;;;4.43;2.25;;;;;;;;;;5048508;28;20037;-75
2023/01/11 02:51:22;;;;;;;4.88;2.45;;;;;;;;;;5048171;28;20048;-75
2023/01/11 02:54:05;;;;;;;4.68;1.83;;;;;;;;;;5029249;28;20056;-74
2023/01/11 02:56:42;;;;;;;1.70;1.60;;;;;;;;;;5048499;28;20049;-74
2023/01/11 02:59:22;;;;;;;6.38;2.35;;;;;;;;;;5047537;28;20045;-74
2023/01/11 03:01:56;;;;;;;3.45;2.30;;;;;;;;;;5047418;28;20052;-75
2023/01/11 03:04:31;;;;;;;5.80;2.00;;;;;;;;;;5047404;28;20049;-74
2023/01/11 03:07:13;;;;;;;4.40;1.90;;;;;;;;;;5047975;28;20049;-75
2023/01/11 03:10:10;;;;;;;4.20;2.10;;;;;;;;;;5047647;28;20045;-75
2023/01/11 03:12:53;;;;;;;7.65;1.98;;;;;;;;;;5047580;28;20041;-75
2023/01/11 03:15:39;;;;;;;2.88;2.00;;;;;;;;;;5047950;28;20045;-74
2023/01/11 03:18:52;;;;;;;8.82;2.05;;;;;;;;;;5047771;28;20040;-75
2023/01/11 03:21:42;;;;;;;4.72;1.90;;;;;;;;;;5040722;28;20056;-75
2023/01/11 03:24:30;;;;;;;3.08;1.60;;;;;;;;;;5047379;28;20049;-74
2023/01/11 03:27:12;;;;;;;8.18;2.50;;;;;;;;;;5047029;28;20053;-74
2023/01/11 03:30:01;;;;;;;3.78;2.30;;;;;;;;;;5047278;28;20071;-74
2023/01/11 03:33:12;;;;;;;3.42;1.80;;;;;;;;;;5047544;28;20053;-74
2023/01/11 03:35:53;;;;;;;6.88;1.98;;;;;;;;;;5017933;28;20518;-75
2023/01/11 03:38:36;;;;;;;5.65;2.15;;;;;;;;;;5047381;28;20115;-75
2023/01/11 03:41:14;;;;;;;6.90;2.40;;;;;;;;;;5047627;28;20052;-74
2023/01/11 03:43:50;;;;;;;4.05;2.70;;;;;;;;;;5047371;28;20583;-74
2023/01/11 03:46:28;;;;;;;6.93;2.22;;;;;;;;;;5047731;28;20350;-74
2023/01/11 03:49:08;;;;;;;8.00;2.60;;;;;;;;;;5047189;28;20052;-75
2023/01/11 03:51:45;;;;;;;6.70;2.70;;;;;;;;;;5047251;28;20935;-75
2023/01/11 03:54:25;;;;;;;4.53;2.50;;;;;;;;;;5047133;28;20056;-75
2023/01/11 03:57:11;;;;;;;3.75;2.50;;;;;;;;;;5047259;28;20521;-74
2023/01/11 03:59:41;;;;;;;5.93;2.70;;;;;;;;;;5046957;28;20049;-75
2023/01/11 04:02:17;;;;;;;3.45;2.80;;;;;;;;;;5046624;28;20052;-75
2023/01/11 04:04:49;;;;;;;9.25;2.50;;;;;;;;;;5047226;28;20059;-75
2023/01/11 04:07:19;;;;;;;3.97;2.50;;;;;;;;;;5046676;28;20518;-75
2023/01/11 04:09:50;;;;;;;7.00;3.10;;;;;;;;;;5047399;28;20037;-75
2023/01/11 04:12:20;;;;;;;5.00;2.75;;;;;;;;;;5046713;28;20044;-74
2023/01/11 04:14:51;;;;;;;6.65;3.30;;;;;;;;;;5045656;28;20053;-74
2023/01/11 04:17:22;;;;;;;6.07;3.20;;;;;;;;;;5046574;28;20411;-74
2023/01/11 04:19:52;;;;;;;4.07;2.92;;;;;;;;;;5046854;28;20056;-75
2023/01/11 04:22:22;;;;;;;8.27;2.72;;;;;;;;;;5046586;28;20416;-75
2023/01/11 04:24:52;;;;;;;11.25;2.53;;;;;;;;;;5046492;28;20045;-75
2023/01/11 04:27:24;;;;;;;9.88;2.60;;;;;;;;;;5046357;28;20103;-75
2023/01/11 04:29:56;;;;;;;7.72;3.15;;;;;;;;;;5046611;28;20880;-75
2023/01/11 04:32:25;;;;;;;6.20;2.63;;;;;;;;;;5046207;28;20144;-75
2023/01/11 04:34:56;;;;;;;8.80;2.60;;;;;;;;;;5046539;28;20057;-75
2023/01/11 04:37:26;;;;;;;7.18;3.10;;;;;;;;;;5046836;28;20594;-75
2023/01/11 04:39:57;;;;;;;9.57;3.03;;;;;;;;;;5045829;28;20049;-75
2023/01/11 04:42:28;;;;;;;7.93;3.50;;;;;;;;;;5046417;28;20049;-75
2023/01/11 04:44:59;;;;;;;9.85;3.58;;;;;;;;;;5046412;28;20048;-74
2023/01/11 04:47:30;;;;;;;8.75;3.08;;;;;;;;;;5046460;28;20048;-75
2023/01/11 04:50:00;;;;;;;7.72;3.63;;;;;;;;;;5046469;28;20530;-74
2023/01/11 04:52:31;;;;;;;7.40;3.67;;;;;;;;;;5046471;28;20133;-75
2023/01/11 04:55:02;;;;;;;7.00;4.15;;;;;;;;;;5046213;28;20048;-74
2023/01/11 04:57:32;;;;;;;8.52;4.32;;;;;;;;;;5046126;28;20041;-75
2023/01/11 05:00:07;;;;;;;11.38;3.33;;;;;;;;;;5046327;28;20395;-74
2023/01/11 05:02:39;;;;;;;4.43;3.35;;;;;;;;;;5045801;28;20041;-75
2023/01/11 05:05:10;;;;;;;5.10;3.17;;;;;;;;;;5046858;28;20431;-75
2023/01/11 05:07:41;;;;;;;7.90;4.15;;;;;;;;;;5046326;28;20053;-75
2023/01/11 05:10:11;;;;;;;7.60;3.40;;;;;;;;;;5046771;28;20045;-75
2023/01/11 05:12:45;;;;;;;4.90;3.05;;;;;;;;;;5046698;28;20041;-75
2023/01/11 05:15:17;;;;;;;8.18;3.17;;;;;;;;;;5045852;28;20048;-75
2023/01/11 05:17:47;;;;;;;8.52;3.03;;;;;;;;;;5045657;28;20048;-75
2023/01/11 05:20:17;;;;;;;5.13;3.15;;;;;;;;;;5028857;28;20052;-75
2023/01/11 05:22:48;;;;;;;5.03;2.80;;;;;;;;;;5044679;28;20832;-75
2023/01/11 05:25:18;;;;;;;7.68;3.20;;;;;;;;;;5046400;28;20048;-75
2023/01/11 05:27:49;;;;;;;4.60;2.30;;;;;;;;;;5048742;28;20037;-75
2023/01/11 05:30:18;;;;;;;6.68;3.47;;;;;;;;;;5049747;28;20041;-75
2023/01/11 05:32:49;;;;;;;6.25;2.78;;;;;;;;;;5050120;28;20053;-75
2023/01/11 05:35:21;;;;;;;7.63;3.67;;;;;;;;;;5049634;28;20076;-75
2023/01/11 05:37:51;;;;;;;5.57;3.47;;;;;;;;;;5049536;28;20057;-74
2023/01/11 05:40:21;;;;;;;6.45;2.88;;;;;;;;;;5049277;28;20056;-75
2023/01/11 05:42:52;;;;;;;3.83;2.70;;;;;;;;;;5049795;28;20056;-74
2023/01/11 05:45:28;;;;;;;5.45;3.30;;;;;;;;;;5049689;28;20053;-74
2023/01/11 05:47:59;;;;;;;5.07;3.60;;;;;;;;;;5049181;28;20053;-75
2023/01/11 05:50:29;;;;;;;5.35;3.28;;;;;;;;;;5049351;28;20056;-75
2023/01/11 05:53:00;;;;;;;8.02;4.10;;;;;;;;;;5049753;28;20041;-75
2023/01/11 05:55:30;;;;;;;9.85;5.13;;;;;;;;;;5049520;28;20052;-75
2023/01/11 05:58:00;;;;;;;7.40;4.32;;;;;;;;;;5031959;28;20052;-75
2023/01/11 06:00:32;;;;;;;11.20;5.07;;;;;;;;;;5049697;28;20048;-75
2023/01/11 06:03:03;;;;;;;7.22;4.93;;;;;;;;;;5049671;28;20403;-75
2023/01/11 06:05:34;;;;;;;10.07;4.85;;;;;;;;;;5049281;28;20045;-74
2023/01/11 06:08:04;;;;;;;5.97;3.83;;;;;;;;;;5049292;28;20492;-75
2023/01/11 06:10:35;;;;;;;7.70;5.07;;;;;;;;;;5049346;28;20064;-75
2023/01/11 06:16:11;;;;;;;9.73;4.80;;;;;;;;;;5047388;28;20175;-75
2023/01/11 06:18:45;;;;;;;7.35;4.55;;;;;;;;;;5049022;28;20503;-75
2023/01/11 06:21:16;;;;;;;14.82;5.65;;;;;;;;;;5048597;28;20068;-75
2023/01/11 06:23:49;;;;;;;10.55;6.35;;;;;;;;;;5030964;28;20052;-75
2023/01/11 06:26:21;;;;;;;10.15;6.22;;;;;;;;;;5048662;28;20064;-75
2023/01/11 06:28:52;;;;;;;11.85;5.10;;;;;;;;;;5048631;28;20037;-75
2023/01/11 06:31:22;;;;;;;7.07;4.00;;;;;;;;;;5048595;28;20044;-75
2023/01/11 06:33:53;;;;;;;7.95;4.00;;;;;;;;;;5048863;28;20049;-75
2023/01/11 06:36:23;;;;;;;9.90;4.65;;;;;;;;;;5048370;28;20048;-75
2023/01/11 06:38:56;;;;;;;7.47;4.70;;;;;;;;;;5047762;28;20056;-75
2023/01/11 06:41:27;;;;;;;7.60;4.32;;;;;;;;;;5048604;28;20056;-74
2023/01/11 06:43:57;;;;;;;7.88;4.28;;;;;;;;;;5048385;28;20068;-75
2023/01/11 06:46:27;;;;;;;8.38;4.00;;;;;;;;;;5048026;28;20053;-74
2023/01/11 06:48:58;;;;;;;6.32;3.78;;;;;;;;;;5048438;28;20064;-75
2023/01/11 06:51:28;;;;;;;13.85;3.90;;;;;;;;;;5048272;28;20115;-75
2023/01/11 06:53:59;;;;;;;9.52;3.45;;;;;;;;;;5047472;28;20049;-75
2023/01/11 06:56:55;;;;;;;10.82;3.95;;;;;;;;;;5048176;28;20067;-75
2023/01/11 06:59:25;;;;;;;8.98;3.72;;;;;;;;;;5047816;28;20044;-75
2023/01/11 07:01:55;;;;;;;8.63;3.75;;;;;;;;;;5048220;28;20045;-75
2023/01/11 07:04:26;;;;;;;12.70;4.07;;;;;;;;;;5047865;28;20052;-74
2023/01/11 07:06:57;;;;;;;7.85;3.97;;;;;;;;;;5047927;28;20048;-75
2023/01/11 07:09:27;;;;;;;7.85;4.30;;;;;;;;;;5047874;28;20053;-75
2023/01/11 07:11:58;;;;;;;7.53;3.17;;;;;;;;;;5047810;28;20049;-75
2023/01/11 07:14:29;;;;;;;9.93;4.47;;;;;;;;;;5047848;28;20052;-75
2023/01/11 07:16:58;;;;;;;10.88;4.50;;;;;;;;;;5048180;28;20407;-75
2023/01/11 07:19:29;;;;;;;6.68;3.97;;;;;;;;;;5048237;28;20059;-76
2023/01/11 07:21:58;;;;;;;10.13;4.70;;;;;;;;;;5048254;28;20415;-75
2023/01/11 07:24:31;;;;;;;11.43;4.35;;;;;;;;;;5047312;28;20053;-74
2023/01/11 07:27:02;;;;;;;10.60;4.80;;;;;;;;;;5047607;28;20061;-74
2023/01/11 07:29:33;;;;;;;7.95;4.43;;;;;;;;;;5047714;28;20404;-74
2023/01/11 07:32:04;;;;;;;9.15;4.13;;;;;;;;;;5047306;28;20044;-75
2023/01/11 07:34:35;;;;;;;10.85;4.25;;;;;;;;;;5047149;28;20500;-75
2023/01/11 07:37:08;;;;;;;10.90;4.43;;;;;;;;;;5047359;28;20048;-74
2023/01/11 07:39:57;;;;;;;4.88;3.33;;;;;;;;;;5047245;28;20565;-74
2023/01/11 07:45:16;;;;;;;7.05;4.72;;;;;;;;;;5046801;28;20041;-74
2023/01/11 07:47:51;;;;;;;10.15;4.53;;;;;;;;;;5047984;28;20048;-74
2023/01/11 07:50:21;;;;;;;9.50;4.70;;;;;;;;;;5047671;28;20067;-74
2023/01/11 07:52:51;;;;;;;14.93;4.40;;;;;;;;;;5047133;28;20141;-74
2023/01/11 07:55:21;;;;;;;8.82;4.57;;;;;;;;;;5047467;28;20575;-75
2023/01/11 07:57:51;;;;;;;9.57;4.75;;;;;;;;;;5047147;28;20056;-75
2023/01/11 08:00:23;;;;;;;7.43;4.68;;;;;;;;;;5047450;28;20045;-75
2023/01/11 08:02:55;;;;;;;8.45;4.95;;;;;;;;;;5047053;28;20112;-74
2023/01/11 08:05:27;;;;;;;10.65;4.88;;;;;;;;;;5047310;28;20056;-75
2023/01/11 08:07:58;;;;;;;10.38;5.18;;;;;;;;;;5046974;28;20594;-74
2023/01/11 08:10:29;;;;;;;9.63;4.93;;;;;;;;;;5047123;28;20424;-74
2023/01/11 08:15:48;;;;;;;6.93;4.20;;;;;;;;;;5045826;28;20045;-74
2023/01/11 08:18:18;;;;;;;7.28;4.53;;;;;;;;;;5047307;28;20049;-74
2023/01/11 08:20:52;;;;;;;11.15;5.13;;;;;;;;;;5045460;28;20530;-75
2023/01/11 08:23:22;;;;;;;12.80;4.80;;;;;;;;;;5046750;28;20040;-74
2023/01/11 08:25:56;;;;;;;13.20;5.00;;;;;;;;;;5046195;28;20059;-74
2023/01/11 08:28:28;;;;;;;10.35;4.65;;;;;;;;;;5046890;28;20041;-74
2023/01/11 08:31:07;;;;;;;11.07;5.20;;;;;;;;;;5046653;28;20055;-74
2023/01/11 08:33:38;;;;;;;7.32;4.88;;;;;;;;;;5046527;28;20049;-74
2023/01/11 08:36:11;;;;;;;11.48;5.13;;;;;;;;;;5046102;28;20850;-75
2023/01/11 08:38:42;;;;;;;7.35;5.10;;;;;;;;;;5046349;28;20045;-75
2023/01/11 08:41:13;;;;;;;6.95;4.80;;;;;;;;;;5046363;28;20045;-76
2023/01/11 08:43:43;;;;;;;8.27;4.97;;;;;;;;;;5046627;28;20059;-76
2023/01/11 08:46:13;;;;;;;9.23;4.82;;;;;;;;;;5046320;28;20053;-74
2023/01/11 08:48:45;;;;;;;7.03;4.70;;;;;;;;;;5028553;28;20033;-74
2023/01/11 08:51:17;;;;;;;17.40;4.72;;;;;;;;;;5046834;28;20037;-74
2023/01/11 08:53:47;;;;;;;8.27;4.93;;;;;;;;;;5046200;28;20049;-74
2023/01/11 08:56:18;;;;;;;11.77;4.82;;;;;;;;;;5046483;28;20045;-75
2023/01/11 08:58:47;;;;;;;11.52;5.00;;;;;;;;;;5044987;28;20075;-75
2023/01/11 09:01:17;;;;;;;7.78;4.07;;;;;;;;;;5047063;28;20091;-75
2023/01/11 09:03:48;;;;;;;15.88;4.93;;;;;;;;;;5050723;28;20056;-75
2023/01/11 09:06:18;;;;;;;9.07;4.80;;;;;;;;;;5050747;28;20393;-74
2023/01/11 09:08:49;;;;;;;11.32;4.57;;;;;;;;;;5050333;28;20053;-74
2023/01/11 09:14:09;;;;;;;7.72;4.20;;;;;;;;;;5050734;28;20041;-73
2023/01/11 09:16:39;;;;;;;10.27;4.43;;;;;;;;;;5050340;28;20411;-74
2023/01/11 09:19:09;;;;;;;13.02;4.47;;;;;;;;;;5050184;28;20782;-73
2023/01/11 09:21:39;;;;;;;11.38;4.70;;;;;;;;;;5049675;28;20068;-74
2023/01/11 09:24:10;;;;;;;7.13;4.35;;;;;;;;;;5050630;28;20055;-73
2023/01/11 09:26:42;;;;;;;7.32;3.85;;;;;;;;;;5049845;28;20064;-73
2023/01/11 09:29:13;;;;;;;8.30;4.63;;;;;;;;;;5050212;28;20037;-73
2023/01/11 09:31:43;;;;;;;6.90;4.53;;;;;;;;;;5050200;28;20047;-73
2023/01/11 09:34:14;;;;;;;10.40;5.10;;;;;;;;;;5050112;28;20049;-74
2023/01/11 09:36:46;;;;;;;8.15;4.70;;;;;;;;;;5049798;28;20045;-74
2023/01/11 09:39:21;;;;;;;7.45;4.55;;;;;;;;;;5049555;28;20041;-73
2023/01/11 09:42:37;;;;;;;9.68;5.22;;;;;;;;;;5032734;28;20504;-74
2023/01/11 09:45:21;;;;;;;12.35;6.53;;;;;;;;;;5049778;28;20518;-74
2023/01/11 09:47:55;;;;;;;8.40;5.63;;;;;;;;;;5049443;28;20056;-74
2023/01/11 09:50:38;;;;;;;8.15;5.53;;;;;;;;;;5049245;28;20053;-74
2023/01/11 09:53:30;;;;;;;8.18;5.47;;;;;;;;;;5049650;28;20049;-73
2023/01/11 09:56:06;;;;;;;12.07;6.82;;;;;;;;;;5049507;28;20439;-73
2023/01/11 09:59:00;;;;;;;10.68;6.10;;;;;;;;;;5049200;28;20056;-73
2023/01/11 10:01:39;;;;;;;11.20;5.50;;;;;;;;;;5049415;28;20037;-74
2023/01/11 10:04:40;;;;;;;10.35;6.10;;;;;;;;;;5048811;28;20049;-73
2023/01/11 10:07:42;;;;;;;9.15;5.57;;;;;;;;;;5049304;28;20045;-74
2023/01/11 10:10:27;;;;;;;13.07;5.88;;;;;;;;;;5049955;28;20606;-74
2023/01/11 10:13:38;;;;;;;13.52;5.55;;;;;;;;;;5047321;28;20060;-75
2023/01/11 10:16:57;;;;;;;11.77;4.82;;;;;;;;;;5048486;28;20526;-75
2023/01/11 10:20:10;;;;;;;12.18;4.90;;;;;;;;;;5048827;28;20044;-74
2023/01/11 10:22:45;;;;;;;9.90;4.55;;;;;;;;;;5049063;28;20048;-74
2023/01/11 10:25:25;;;;;;;10.68;3.83;;;;;;;;;;5049070;28;20052;-74
2023/01/11 10:28:00;;;;;;;9.07;5.13;;;;;;;;;;5048848;28;20480;-74
2023/01/11 10:42:06;;;;;;;12.02;5.70;;;;;;;;;;5049552;28;20460;-74
2023/01/11 10:45:12;;;;;;;12.15;5.07;;;;;;;;;;5067982;28;20403;-74
2023/01/11 10:48:00;;;;;;;8.90;4.45;;;;;;;;;;5059217;28;20052;-74
2023/01/11 10:51:00;;;;;;;9.85;4.72;;;;;;;;;;5067889;28;20499;-74
2023/01/11 10:53:55;;;;;;;15.30;5.35;;;;;;;;;;5068446;28;20546;-74
2023/01/11 10:56:57;;;;;;;9.63;4.35;;;;;;;;;;5068060;28;20044;-75
2023/01/11 10:59:42;;;;;;;10.20;5.20;;;;;;;;;;5046114;28;20063;-73
2023/01/11 11:02:23;;;;;;;11.68;5.93;;;;;;;;;;5068194;28;20037;-75
2023/01/11 11:05:19;;;;;;;8.73;5.05;;;;;;;;;;5068833;28;20048;-74
2023/01/11 11:08:00;;;;;;;9.50;6.05;;;;;;;;;;5067083;28;20435;-74
2023/01/11 11:10:38;;;;;;;11.20;4.75;;;;;;;;;;5067823;28;20487;-74
2023/01/11 11:13:43;;;;;;;10.23;5.22;;;;;;;;;;5050512;28;20049;-75
2023/01/11 11:16:22;;;;;;;9.93;5.28;;;;;;;;;;5043872;28;20052;-74
2023/01/11 11:18:57;;;;;;;12.20;5.63;;;;;;;;;;5067946;28;20383;-74
2023/01/11 11:21:38;;;;;;;8.02;4.78;;;;;;;;;;5067239;28;20045;-73
2023/01/11 11:24:22;;;;;;;12.95;5.70;;;;;;;;;;5067185;28;20049;-75
2023/01/11 11:27:15;;;;;;;10.00;4.70;;;;;;;;;;5067746;28;20060;-75
2023/01/11 11:29:51;;;;;;;8.38;5.95;;;;;;;;;;5067801;28;20037;-76
2023/01/11 11:32:37;;;;;;;15.88;5.57;;;;;;;;;;5067727;28;20391;-76
2023/01/11 11:35:36;;;;;;;13.35;5.65;;;;;;;;;;5066014;28;20044;-74
2023/01/11 11:38:16;;;;;;;8.82;4.60;;;;;;;;;;5066172;28;20044;-74
2023/01/11 11:40:58;;;;;;;8.00;4.63;;;;;;;;;;5065383;28;20059;-75
2023/01/11 11:43:29;;;;;;;13.68;5.72;;;;;;;;;;5066623;28;20411;-76
2023/01/11 11:46:20;;;;;;;8.50;4.60;;;;;;;;;;5065802;28;20032;-74
2023/01/11 11:49:15;;;;;;;15.32;4.10;;;;;;;;;;5066550;28;20052;-74
2023/01/11 11:51:47;;;;;;;8.93;4.35;;;;;;;;;;5067245;28;20394;-74
2023/01/11 11:54:44;;;;;;;8.88;4.35;;;;;;;;;;5067461;28;20048;-76
2023/01/11 11:57:24;;;;;;;6.72;4.53;;;;;;;;;;5042987;28;20049;-75
2023/01/11 12:00:24;;;;;;;8.35;3.78;;;;;;;;;;5067499;28;20048;-75
2023/01/11 12:03:03;;;;;;;6.55;3.80;;;;;;;;;;5062248;28;20061;-75
2023/01/11 12:05:34;;;;;;;8.32;4.25;;;;;;;;;;5067159;28;20052;-75
2023/01/11 12:08:04;;;;;;;9.32;3.55;;;;;;;;;;5067007;28;20045;-75
2023/01/11 12:10:35;;;;;;;11.23;3.60;;;;;;;;;;5066924;28;20055;-77
2023/01/11 12:13:28;;;;;;;3.65;2.53;;;;;;;;;;5049054;28;20044;-81
2023/01/11 12:16:22;;;;;;;7.97;2.33;;;;;;;;;;5066138;28;20053;-75
2023/01/11 12:18:52;;;;;;;4.97;2.17;;;;;;;;;;5060447;28;20068;-76
2023/01/11 12:21:24;;;;;;;5.38;2.38;;;;;;;;;;5067167;28;20075;-75
2023/01/11 12:24:17;;;;;;;5.18;2.60;;;;;;;;;;5065580;28;20435;-77
2023/01/11 12:27:14;;;;;;;6.75;2.50;;;;;;;;;;5066609;28;20431;-76
2023/01/11 12:29:51;;;;;;;6.50;2.38;;;;;;;;;;5050412;28;20126;-76
2023/01/11 12:32:42;;;;;;;7.55;2.97;;;;;;;;;;5067486;28;20700;-75
2023/01/11 12:35:28;;;;;;;5.10;2.25;;;;;;;;;;5066392;28;20044;-76
2023/01/11 12:38:00;;;;;;;4.53;2.38;;;;;;;;;;5066199;28;20529;-76
2023/01/11 12:41:00;;;;;;;6.32;2.17;;;;;;;;;;5066678;28;20483;-77
2023/01/11 12:43:51;;;;;;;3.97;2.30;;;;;;;;;;5047803;28;20052;-76
2023/01/11 12:46:43;;;;;;;5.60;2.80;;;;;;;;;;5066353;28;20052;-76
2023/01/11 12:49:39;;;;;;;4.75;2.10;;;;;;;;;;5066254;28;20047;-77
2023/01/11 12:52:26;;;;;;;10.40;3.17;;;;;;;;;;5066259;28;20390;-76
2023/01/11 12:55:24;;;;;;;6.55;2.92;;;;;;;;;;5047869;28;20063;-76
2023/01/11 12:58:34;;;;;;;5.88;2.38;;;;;;;;;;5066814;28;20052;-75
2023/01/11 13:01:08;;;;;;;6.75;2.20;;;;;;;;;;5066130;28;20052;-76
2023/01/11 13:03:53;;;;;;;3.38;2.15;;;;;;;;;;5048342;28;20048;-76
2023/01/11 13:06:35;;;;;;;12.90;3.30;;;;;;;;;;5066274;28;20072;-75
2023/01/11 13:09:34;;;;;;;8.00;2.70;;;;;;;;;;5066136;28;20055;-76
2023/01/11 13:12:15;;;;;;;6.68;2.65;;;;;;;;;;5047672;28;20127;-78
2023/01/11 13:14:57;;;;;;;7.22;2.33;;;;;;;;;;5048671;28;20094;-76
2023/01/11 13:17:37;;;;;;;7.07;2.90;;;;;;;;;;5066327;28;20052;-77
2023/01/11 13:20:24;;;;;;;3.78;2.40;;;;;;;;;;5047920;28;20063;-76
2023/01/11 13:23:33;;;;;;;16.25;10.68;;;;;;;;;;5066121;28;20051;-77
2023/01/11 13:26:17;;;;;;;5.18;3.25;;;;;;;;;;5066333;28;20048;-73
2023/01/11 13:29:15;;;;;;;4.97;2.78;;;;;;;;;;5066257;28;20052;-75
2023/01/11 13:31:49;;;;;;;7.55;3.13;;;;;;;;;;5064159;28;20084;-75
2023/01/11 13:34:41;;;;;;;5.22;2.70;;;;;;;;;;5066080;28;20112;-76
2023/01/11 13:37:34;;;;;;;5.03;2.58;;;;;;;;;;5065702;28;20056;-76
2023/01/11 13:40:18;;;;;;;3.25;2.45;;;;;;;;;;5066007;28;20511;-78
2023/01/11 13:43:13;;;;;;;4.10;2.60;;;;;;;;;;5066206;28;20036;-75
2023/01/11 13:45:57;;;;;;;4.75;2.30;;;;;;;;;;5065867;28;20119;-76
2023/01/11 13:48:39;;;;;;;11.10;4.00;;;;;;;;;;5068162;28;20056;-76
2023/01/11 13:51:22;;;;;;;4.43;2.40;;;;;;;;;;5051984;28;20119;-76
2023/01/11 13:54:07;;;;;;;6.05;2.17;;;;;;;;;;5069907;28;20040;-79
2023/01/11 13:56:46;;;;;;;4.25;2.33;;;;;;;;;;5069634;28;20487;-76
2023/01/11 13:59:44;;;;;;;3.05;2.17;;;;;;;;;;5050464;28;20766;-78
2023/01/11 14:02:36;;;;;;;4.63;1.75;;;;;;;;;;5068618;28;20831;-76
2023/01/11 14:05:17;;;;;;;6.00;2.63;;;;;;;;;;5069128;28;20041;-78
2023/01/11 14:08:10;;;;;;;3.75;1.80;;;;;;;;;;5069223;28;20052;-78
2023/01/11 14:10:40;;;;;;;3.25;1.50;;;;;;;;;;5068884;28;20052;-77
2023/01/11 14:16:41;;;;;;;5.82;1.65;;;;;;;;;;5068951;28;20055;-77
2023/01/11 14:19:37;;;;;;;3.53;1.92;;;;;;;;;;5050245;28;20399;-76
2023/01/11 14:22:34;;;;;;;7.13;1.75;;;;;;;;;;5052026;28;20048;-76
2023/01/11 14:25:08;;;;;;;2.85;1.67;;;;;;;;;;5068630;28;20044;-77
2023/01/11 14:27:54;;;;;;;2.10;1.27;;;;;;;;;;5050790;28;20056;-77
2023/01/11 14:31:02;;;;;;;1.75;1.17;;;;;;;;;;5068373;28;20052;-76
2023/01/11 14:33:36;;;;;;;3.92;1.50;;;;;;;;;;5046616;28;20070;-79
2023/01/11 14:36:07;;;;;;;3.45;1.30;;;;;;;;;;5068332;28;20048;-77
2023/01/11 14:38:43;;;;;;;2.10;1.38;;;;;;;;;;5068416;28;20059;-78
2023/01/11 14:42:01;;;;;;;3.20;1.50;;;;;;;;;;5068884;28;20052;-76
2023/01/11 14:44:47;;;;;;;1.85;1.48;;;;;;;;;;5006072;28;20047;-77
2023/01/11 14:47:43;;;;;;;3.40;1.50;;;;;;;;;;5006783;28;20184;-76
2023/01/11 14:50:34;;;;;;;4.55;1.60;;;;;;;;;;5061388;28;20060;-77
2023/01/11 14:53:08;;;;;;;1.73;1.10;;;;;;;;;;5068513;28;20051;-79
2023/01/11 14:55:46;;;;;;;3.00;1.17;;;;;;;;;;5068143;28;20095;-77
2023/01/11 14:58:30;;;;;;;2.85;1.30;;;;;;;;;;5067602;28;20055;-79
2023/01/11 15:01:06;;;;;;;5.32;1.63;;;;;;;;;;5067935;28;20403;-78
2023/01/11 15:03:43;;;;;;;8.52;6.18;;;;;;;;;;5067863;28;20049;-76
2023/01/11 15:06:20;;;;;;;6.40;1.30;;;;;;;;;;5050700;28;20048;-78
2023/01/11 15:08:53;;;;;;;2.22;1.35;;;;;;;;;;5068375;28;20051;-76
2023/01/11 15:11:30;;;;;;;1.63;0.90;;;;;;;;;;5068653;28;20053;-77
2023/01/11 15:14:27;;;;;;;3.45;1.33;;;;;;;;;;5068629;28;20062;-78
2023/01/11 15:19:52;;;;;;;4.70;1.10;;;;;;;;;;5068022;28;20419;-80
2023/01/11 15:22:29;;;;;;;3.33;1.40;;;;;;;;;;5067743;28;20044;-77
2023/01/11 15:25:28;;;;;;;1.90;1.20;;;;;;;;;;5067698;28;20403;-77
2023/01/11 15:28:24;;;;;;;2.03;1.08;;;;;;;;;;5066982;28;20052;-77
2023/01/11 15:30:55;;;;;;;5.50;1.20;;;;;;;;;;5067866;28;20071;-77
2023/01/11 15:33:29;;;;;;;2.35;1.00;;;;;;;;;;5049349;28;20052;-77
2023/01/11 15:36:02;;;;;;;2.45;0.85;;;;;;;;;;5067823;28;20506;-79
2023/01/11 15:38:51;;;;;;;1.13;0.95;;;;;;;;;;5067045;28;20521;-77
2023/01/11 15:45:08;;;;;;;3.83;1.23;;;;;;;;;;5065764;28;20063;-77
2023/01/11 15:47:39;;;;;;;1.10;1.00;;;;;;;;;;5066734;28;20427;-77
2023/01/11 15:50:31;;;;;;;2.28;1.30;;;;;;;;;;5067455;28;20045;-78
2023/01/11 15:53:01;;;;;;;;;;;;;;;;;;5060663;28;20792;-79
2023/01/11 15:55:53;;;;;;;3.05;0.98;;;;;;;;;;5065178;28;19999;-79
2023/01/11 15:58:44;;;;;;;2.83;1.00;;;;;;;;;;5067006;28;20048;-77
2023/01/11 16:01:21;;;;;;;5.63;0.90;;;;;;;;;;5066849;28;20048;-77
2023/01/11 16:04:03;;;;;;;4.70;1.20;;;;;;;;;;5066188;28;20056;-77
2023/01/11 16:06:42;;;;;;;3.60;1.10;;;;;;;;;;5066979;28;20051;-77
2023/01/11 16:09:24;;;;;;;4.18;1.15;;;;;;;;;;5067498;28;20518;-78
2023/01/11 16:12:22;;;;;;;3.40;1.00;;;;;;;;;;5066117;28;20495;-78
2023/01/11 16:15:01;;;;;;;1.67;0.93;;;;;;;;;;5066741;28;20044;-78
2023/01/11 16:17:31;;;;;;;1.95;1.00;;;;;;;;;;5066808;28;20048;-77
2023/01/11 16:20:27;;;;;;;5.43;1.20;;;;;;;;;;5048540;28;20055;-77
2023/01/11 16:23:01;;;;;;;2.22;0.85;;;;;;;;;;5060144;28;20044;-77
2023/01/11 16:25:36;;;;;;;2.08;1.13;;;;;;;;;;5067980;28;20152;-78
2023/01/11 16:28:12;;;;;;;1.15;0.90;;;;;;;;;;5067336;28;20052;-78
2023/01/11 16:30:45;;;;;;;2.13;0.85;;;;;;;;;;5050552;28;20049;-78
2023/01/11 16:33:27;;;;;;;2.35;1.20;;;;;;;;;;5066729;28;20048;-77
2023/01/11 16:36:06;;;;;;;2.40;0.95;;;;;;;;;;5066958;28;20052;-77